Time;durP1;ratioP1;P1;durP2;ratioP2;P2;SDS_P1;SDS_P2;PMS_P1;PMS_P2;Temp;Humidity;BMP_temperature;BMP_pressure;BME280_temperature;BME280_humidity;BME280_pressure;Samples;Min_cycle;Max_cycle;Signal;HPM_P1;HPM_P2
2023/12/26 00:02:05;;;;;;;2.15;1.00;;;6.00;99.90;;;;;;4909063;29;21476;-67
2023/12/26 00:04:33;;;;;;;1.50;1.00;;;6.10;99.90;;;;;;4909543;29;20100;-67
2023/12/26 00:07:05;;;;;;;4.60;0.90;;;6.20;99.90;;;;;;4919345;29;20509;-67
2023/12/26 00:09:40;;;;;;;2.25;1.30;;;6.30;99.90;;;;;;4909377;29;20062;-67
2023/12/26 00:12:12;;;;;;;2.05;1.25;;;6.30;99.90;;;;;;4917994;29;20131;-67
2023/12/26 00:14:39;;;;;;;1.65;1.02;;;6.40;99.90;;;;;;4903727;29;20481;-67
2023/12/26 00:17:11;;;;;;;2.33;1.35;;;6.40;99.90;;;;;;4907870;29;20058;-67
2023/12/26 00:19:45;;;;;;;3.28;1.60;;;6.40;99.90;;;;;;4909194;29;20123;-67
2023/12/26 00:22:17;;;;;;;1.58;1.10;;;6.40;99.90;;;;;;4913016;29;20131;-67
2023/12/26 00:24:50;;;;;;;2.00;1.10;;;6.50;99.90;;;;;;4912777;29;20096;-67
2023/12/26 00:27:16;;;;;;;2.88;1.20;;;6.60;99.90;;;;;;4918199;29;20149;-67
2023/12/26 00:29:43;;;;;;;1.70;1.10;;;6.70;99.90;;;;;;4928818;29;20047;-67
2023/12/26 00:32:10;;;;;;;2.78;1.27;;;6.70;99.90;;;;;;4921087;29;20155;-67
2023/12/26 00:34:43;;;;;;;2.85;1.40;;;6.70;99.90;;;;;;4911259;29;20136;-67
2023/12/26 00:37:15;;;;;;;3.53;1.50;;;6.80;99.90;;;;;;4911064;29;20075;-67
2023/12/26 00:39:47;;;;;;;2.65;1.00;;;6.80;99.90;;;;;;4903631;29;20050;-67
2023/12/26 00:42:19;;;;;;;3.60;2.08;;;6.80;99.90;;;;;;4901320;29;20505;-67
2023/12/26 00:44:51;;;;;;;3.58;1.23;;;6.80;99.90;;;;;;4906045;29;20040;-67
2023/12/26 00:47:24;;;;;;;3.03;1.10;;;6.70;99.90;;;;;;4902513;29;20040;-67
2023/12/26 00:49:59;;;;;;;;;;;6.70;99.90;;;;;;4909947;29;20063;-67
2023/12/26 00:52:34;;;;;;;2.38;1.38;;;6.70;99.90;;;;;;4912232;29;19974;-67
2023/12/26 00:55:07;;;;;;;3.45;1.17;;;6.60;99.90;;;;;;4910660;29;20420;-67
2023/12/26 00:57:40;;;;;;;2.55;1.35;;;6.60;99.90;;;;;;4911649;29;20051;-71
2023/12/26 01:00:12;;;;;;;4.70;1.33;;;6.50;99.90;;;;;;4898273;29;20127;-67
2023/12/26 01:02:40;;;;;;;2.40;1.45;;;6.40;99.90;;;;;;4908284;29;20595;-68
2023/12/26 01:05:12;;;;;;;4.18;1.38;;;6.40;99.90;;;;;;4916298;29;20131;-68
2023/12/26 01:07:43;;;;;;;2.42;1.38;;;6.30;99.90;;;;;;4918044;29;20123;-67
2023/12/26 01:10:15;;;;;;;1.60;1.27;;;6.30;99.90;;;;;;4906402;29;20448;-67
2023/12/26 01:12:47;;;;;;;4.07;1.80;;;6.20;99.90;;;;;;4909169;29;20509;-68
2023/12/26 01:15:21;;;;;;;3.67;1.40;;;6.10;99.90;;;;;;4911152;29;20080;-67
2023/12/26 01:17:48;;;;;;;2.60;1.30;;;6.10;99.90;;;;;;4926333;29;20049;-68
2023/12/26 01:20:20;;;;;;;4.63;1.80;;;6.00;99.90;;;;;;4911512;29;20522;-68
2023/12/26 01:22:47;;;;;;;2.67;1.83;;;5.90;99.90;;;;;;4912107;29;20029;-68
2023/12/26 01:25:20;;;;;;;3.10;1.35;;;5.90;99.90;;;;;;4916456;29;20141;-68
2023/12/26 01:27:54;;;;;;;3.22;1.75;;;5.80;99.90;;;;;;4927584;29;20156;-67
2023/12/26 01:30:26;;;;;;;2.30;1.15;;;5.80;99.90;;;;;;4911335;29;20056;-67
2023/12/26 01:32:58;;;;;;;4.03;1.63;;;5.70;99.90;;;;;;4912784;29;20039;-68
2023/12/26 01:35:30;;;;;;;3.00;1.20;;;5.70;99.90;;;;;;4910911;29;20230;-67
2023/12/26 01:38:02;;;;;;;3.70;1.33;;;5.60;99.90;;;;;;4913692;29;20036;-67
2023/12/26 01:40:34;;;;;;;2.33;1.48;;;5.60;99.90;;;;;;4910806;29;20493;-67
2023/12/26 01:43:08;;;;;;;3.65;1.30;;;5.60;99.90;;;;;;4912603;29;20036;-67
2023/12/26 01:45:35;;;;;;;3.53;1.20;;;5.60;99.90;;;;;;4889163;29;20081;-67
2023/12/26 01:48:09;;;;;;;2.58;1.50;;;5.60;99.90;;;;;;4925835;29;20460;-67
2023/12/26 01:50:41;;;;;;;2.75;1.50;;;5.50;99.90;;;;;;4907094;29;20131;-67
2023/12/26 01:53:14;;;;;;;3.35;1.27;;;5.50;99.90;;;;;;4910133;29;20052;-67
2023/12/26 01:55:47;;;;;;;3.60;1.50;;;5.50;99.90;;;;;;4895755;29;20045;-67
2023/12/26 01:58:19;;;;;;;5.35;2.13;;;5.50;99.90;;;;;;4899063;29;20175;-67
2023/12/26 02:00:53;;;;;;;3.42;1.30;;;5.60;99.90;;;;;;4908938;29;20071;-67
2023/12/26 02:03:26;;;;;;;2.10;1.02;;;5.50;99.90;;;;;;4902801;29;20048;-67
2023/12/26 02:06:00;;;;;;;4.03;1.27;;;5.50;99.90;;;;;;4910932;29;20052;-67
2023/12/26 02:08:37;;;;;;;2.50;1.20;;;5.50;99.90;;;;;;4906680;29;20297;-68
2023/12/26 02:11:10;;;;;;;2.15;1.27;;;5.50;99.90;;;;;;4910558;29;20421;-67
2023/12/26 02:13:42;;;;;;;2.15;1.17;;;5.50;99.90;;;;;;4923757;29;20512;-68
2023/12/26 02:16:21;;;;;;;4.25;1.40;;;5.50;99.90;;;;;;4916399;29;20123;-67
2023/12/26 02:18:55;;;;;;;4.07;1.27;;;5.60;99.90;;;;;;4910092;29;20045;-67
2023/12/26 02:21:22;;;;;;;3.38;1.65;;;5.60;99.90;;;;;;4909198;29;20064;-67
2023/12/26 02:23:58;;;;;;;1.73;1.27;;;5.70;99.90;;;;;;4926638;29;20127;-67
2023/12/26 02:26:28;;;;;;;3.75;1.30;;;5.80;99.90;;;;;;4910084;29;20108;-68
2023/12/26 02:28:58;;;;;;;4.05;1.45;;;5.80;99.90;;;;;;4927923;29;20047;-67
2023/12/26 02:31:31;;;;;;;2.80;1.30;;;5.70;99.90;;;;;;4909711;29;20076;-67
2023/12/26 02:33:58;;;;;;;2.95;1.30;;;5.80;99.90;;;;;;4925887;29;20135;-67
2023/12/26 02:36:30;;;;;;;2.13;1.55;;;5.80;99.90;;;;;;4909692;29;20071;-67
2023/12/26 02:38:59;;;;;;;2.95;1.40;;;5.80;99.90;;;;;;4909479;29;20107;-67
2023/12/26 02:41:26;;;;;;;2.47;1.45;;;5.80;99.90;;;;;;4909670;29;20041;-68
2023/12/26 02:43:58;;;;;;;6.03;1.95;;;5.80;99.90;;;;;;4924849;29;20054;-67
2023/12/26 02:46:30;;;;;;;2.47;1.13;;;5.80;99.90;;;;;;4910496;29;20054;-67
2023/12/26 02:49:02;;;;;;;3.78;1.38;;;5.80;99.90;;;;;;4902297;29;20514;-67
2023/12/26 02:51:35;;;;;;;2.80;1.55;;;5.70;99.90;;;;;;4923882;29;20079;-67
2023/12/26 02:54:07;;;;;;;2.92;1.23;;;5.70;99.90;;;;;;4911772;29;20051;-67
2023/12/26 02:56:39;;;;;;;5.05;1.08;;;5.80;99.90;;;;;;4896429;29;20123;-67
2023/12/26 02:59:11;;;;;;;3.00;1.30;;;5.70;99.90;;;;;;4903791;29;20616;-67
2023/12/26 03:01:46;;;;;;;3.55;1.20;;;5.70;99.90;;;;;;4907104;29;20103;-67
2023/12/26 03:04:18;;;;;;;2.55;1.45;;;5.70;99.90;;;;;;4905492;29;20079;-67
2023/12/26 03:06:51;;;;;;;3.38;1.42;;;5.70;99.90;;;;;;4900293;29;20113;-68
2023/12/26 03:09:23;;;;;;;4.78;1.45;;;5.70;99.90;;;;;;4924860;29;20056;-67
2023/12/26 03:11:55;;;;;;;1.75;1.15;;;5.70;99.90;;;;;;4917355;29;20143;-67
2023/12/26 03:14:22;;;;;;;1.95;1.02;;;5.70;99.90;;;;;;4909549;29;20140;-67
2023/12/26 03:16:54;;;;;;;1.75;1.10;;;5.70;99.90;;;;;;4909046;29;20225;-67
2023/12/26 03:19:28;;;;;;;2.83;1.45;;;5.70;99.90;;;;;;4910406;29;20092;-67
2023/12/26 03:21:55;;;;;;;4.18;1.77;;;5.70;99.90;;;;;;4925611;29;20040;-67
2023/12/26 03:24:22;;;;;;;3.70;1.60;;;5.70;99.90;;;;;;4924950;29;20040;-67
2023/12/26 03:26:49;;;;;;;3.03;1.15;;;5.70;99.90;;;;;;4908166;29;20072;-67
2023/12/26 03:29:21;;;;;;;2.70;1.30;;;5.60;99.90;;;;;;4894515;29;20146;-67
2023/12/26 03:31:53;;;;;;;5.32;1.80;;;5.60;99.90;;;;;;4896081;29;20059;-67
2023/12/26 03:34:25;;;;;;;3.75;1.50;;;5.60;99.90;;;;;;4910647;29;20127;-67
2023/12/26 03:36:52;;;;;;;1.98;1.10;;;5.60;99.90;;;;;;4907469;29;20039;-67
2023/12/26 03:39:25;;;;;;;3.15;1.20;;;5.60;99.90;;;;;;4906639;29;20048;-67
2023/12/26 03:41:59;;;;;;;3.33;1.25;;;5.70;99.90;;;;;;4891495;29;20060;-67
2023/12/26 03:44:30;;;;;;;2.90;1.42;;;5.70;99.90;;;;;;4906697;29;20080;-67
2023/12/26 03:47:03;;;;;;;3.45;1.48;;;5.70;99.90;;;;;;4927814;29;20048;-67
2023/12/26 03:49:32;;;;;;;3.20;1.40;;;5.70;99.90;;;;;;4907767;29;20045;-67
2023/12/26 03:52:04;;;;;;;2.85;1.08;;;5.70;99.90;;;;;;4924315;29;20037;-67
2023/12/26 03:54:36;;;;;;;2.38;1.35;;;5.70;99.90;;;;;;4908852;29;20468;-67
2023/12/26 03:57:04;;;;;;;3.53;1.35;;;5.60;99.90;;;;;;4929768;29;20032;-67
2023/12/26 03:59:36;;;;;;;4.40;1.70;;;5.70;99.90;;;;;;4913476;29;20461;-67
2023/12/26 04:02:08;;;;;;;2.47;1.17;;;5.70;99.90;;;;;;4912619;29;20033;-67
2023/12/26 04:04:40;;;;;;;2.78;1.23;;;5.60;99.90;;;;;;4910318;29;20092;-67
2023/12/26 04:07:12;;;;;;;4.25;1.30;;;5.70;99.90;;;;;;4925805;29;20056;-67
2023/12/26 04:09:45;;;;;;;4.00;1.30;;;5.70;99.90;;;;;;4886221;29;20045;-67
2023/12/26 04:12:12;;;;;;;3.67;1.67;;;5.70;99.90;;;;;;4914357;29;20046;-68
2023/12/26 04:14:45;;;;;;;3.10;1.35;;;5.60;99.90;;;;;;4927555;29;20608;-67
2023/12/26 04:17:17;;;;;;;3.20;1.50;;;5.70;99.90;;;;;;4928327;29;20505;-67
2023/12/26 04:19:49;;;;;;;2.53;1.38;;;5.70;99.90;;;;;;4912819;29;20053;-67
2023/12/26 04:22:16;;;;;;;2.60;1.10;;;5.60;99.90;;;;;;4912647;29;20045;-68
2023/12/26 04:24:48;;;;;;;3.17;1.55;;;5.60;99.90;;;;;;4911356;29;20453;-67
2023/12/26 04:27:20;;;;;;;5.10;1.77;;;5.60;99.90;;;;;;4913674;29;20543;-67
2023/12/26 04:29:53;;;;;;;1.50;1.10;;;5.60;99.90;;;;;;4909690;29;20071;-67
2023/12/26 04:32:26;;;;;;;2.57;1.37;;;5.60;99.90;;;;;;4905416;29;20048;-68
2023/12/26 04:34:58;;;;;;;3.13;1.48;;;5.60;99.90;;;;;;4918845;29;20717;-67
2023/12/26 04:37:30;;;;;;;3.13;1.23;;;5.60;99.90;;;;;;4900047;29;20052;-67
2023/12/26 04:40:03;;;;;;;4.97;1.35;;;5.60;99.90;;;;;;4915880;29;20040;-68
2023/12/26 04:42:30;;;;;;;2.72;1.30;;;5.50;99.90;;;;;;4894288;29;20505;-68
2023/12/26 04:44:57;;;;;;;3.47;1.58;;;5.50;99.90;;;;;;4920017;29;20040;-68
2023/12/26 04:47:29;;;;;;;4.53;1.73;;;5.50;99.90;;;;;;4912859;29;20056;-68
2023/12/26 04:49:57;;;;;;;3.53;2.05;;;5.50;99.90;;;;;;4912139;29;20509;-67
2023/12/26 04:52:28;;;;;;;3.42;2.03;;;5.40;99.90;;;;;;4914278;29;20135;-67
2023/12/26 04:54:55;;;;;;;4.28;1.80;;;5.40;99.90;;;;;;4913716;29;20728;-68
2023/12/26 04:57:27;;;;;;;3.08;1.85;;;5.40;99.90;;;;;;4902830;29;20063;-67
2023/12/26 04:59:54;;;;;;;3.65;1.80;;;5.30;99.90;;;;;;4912000;29;20115;-68
2023/12/26 05:02:28;;;;;;;4.32;2.20;;;5.30;99.90;;;;;;4913968;29;20036;-68
2023/12/26 05:04:55;;;;;;;4.32;1.60;;;5.20;99.90;;;;;;4910928;29;20055;-67
2023/12/26 05:07:27;;;;;;;7.80;2.30;;;5.10;99.90;;;;;;4909477;29;20513;-68
2023/12/26 05:10:00;;;;;;;4.60;1.50;;;5.10;99.90;;;;;;4903243;29;20505;-68
2023/12/26 05:12:31;;;;;;;4.03;1.75;;;5.10;99.90;;;;;;4911857;29;20568;-67
2023/12/26 05:15:04;;;;;;;3.60;1.27;;;5.10;99.90;;;;;;4907831;29;20048;-68
2023/12/26 05:17:36;;;;;;;3.00;1.52;;;5.00;99.90;;;;;;4930485;29;20048;-67
2023/12/26 05:20:09;;;;;;;6.50;1.90;;;5.00;99.90;;;;;;4898282;29;20504;-67
2023/12/26 05:22:41;;;;;;;3.37;1.63;;;4.90;99.90;;;;;;4923304;29;20519;-67
2023/12/26 05:25:13;;;;;;;3.63;1.35;;;4.90;99.90;;;;;;4906089;29;20304;-68
2023/12/26 05:27:45;;;;;;;4.07;1.83;;;4.80;99.90;;;;;;4897248;29;20052;-67
2023/12/26 05:30:18;;;;;;;2.50;1.63;;;4.70;99.90;;;;;;4909647;29;20139;-68
2023/12/26 05:32:50;;;;;;;4.93;2.00;;;4.70;99.90;;;;;;4899251;29;20044;-68
2023/12/26 05:35:19;;;;;;;3.47;1.45;;;4.70;99.90;;;;;;4922949;29;20107;-67
2023/12/26 05:37:51;;;;;;;2.42;1.40;;;4.70;99.90;;;;;;4916896;29;20420;-68
2023/12/26 05:40:23;;;;;;;3.75;1.30;;;4.60;99.90;;;;;;4907166;29;20052;-68
2023/12/26 05:42:50;;;;;;;7.43;2.05;;;4.60;99.90;;;;;;4910841;29;20044;-67
2023/12/26 05:45:24;;;;;;;;;;;4.60;99.90;;;;;;4899018;29;20044;-68
2023/12/26 05:47:56;;;;;;;4.28;1.45;;;4.50;99.90;;;;;;4909122;29;20368;-67
2023/12/26 05:50:28;;;;;;;3.20;1.70;;;4.50;99.90;;;;;;4887497;29;20453;-68
2023/12/26 05:53:02;;;;;;;5.50;1.58;;;4.40;99.90;;;;;;4908825;29;20052;-68
2023/12/26 05:55:29;;;;;;;3.22;1.27;;;4.40;99.90;;;;;;4916358;29;20516;-68
2023/12/26 05:58:01;;;;;;;3.00;1.40;;;4.30;99.90;;;;;;4913743;29;20133;-68
2023/12/26 06:00:33;;;;;;;3.22;1.60;;;4.30;99.90;;;;;;4913825;29;20082;-67
2023/12/26 06:03:06;;;;;;;5.70;1.73;;;4.30;99.90;;;;;;4912545;29;20036;-68
2023/12/26 06:05:38;;;;;;;2.17;1.60;;;4.30;99.90;;;;;;4909969;29;20048;-68
2023/12/26 06:08:11;;;;;;;4.78;1.60;;;4.20;99.90;;;;;;4912992;29;20104;-67
2023/12/26 06:10:38;;;;;;;4.88;1.88;;;4.20;99.90;;;;;;4921952;29;20123;-67
2023/12/26 06:13:11;;;;;;;2.67;1.23;;;4.10;99.90;;;;;;4898346;29;20100;-68
2023/12/26 06:15:44;;;;;;;;;;;4.10;99.90;;;;;;4921502;29;20521;-67
2023/12/26 06:18:16;;;;;;;3.75;2.25;;;3.90;99.90;;;;;;4914142;29;20540;-67
2023/12/26 06:20:48;;;;;;;4.05;1.65;;;3.90;99.90;;;;;;4898333;29;20104;-68
2023/12/26 06:23:20;;;;;;;3.25;1.58;;;3.90;99.90;;;;;;4904720;29;20045;-67
2023/12/26 06:25:53;;;;;;;1.95;1.40;;;3.80;99.90;;;;;;4914336;29;20048;-67
2023/12/26 06:28:25;;;;;;;4.30;1.90;;;3.80;99.90;;;;;;4914033;29;20048;-68
2023/12/26 06:30:52;;;;;;;2.70;1.50;;;3.80;99.90;;;;;;4918901;29;20044;-68
2023/12/26 06:33:24;;;;;;;4.40;1.80;;;3.80;99.90;;;;;;4911170;29;20048;-67
2023/12/26 06:35:57;;;;;;;2.70;1.80;;;3.80;99.90;;;;;;4920352;29;20509;-67
2023/12/26 06:38:30;;;;;;;6.10;2.13;;;3.90;99.90;;;;;;4897248;29;20055;-68
2023/12/26 06:41:03;;;;;;;3.40;1.90;;;3.90;99.90;;;;;;4896370;29;20051;-68
2023/12/26 06:43:35;;;;;;;3.35;1.70;;;3.90;99.90;;;;;;4904886;29;20135;-68
2023/12/26 06:46:07;;;;;;;3.67;1.60;;;3.90;99.90;;;;;;4913490;29;20043;-67
2023/12/26 06:48:40;;;;;;;3.70;1.70;;;3.90;99.90;;;;;;4914267;29;20480;-67
2023/12/26 06:51:15;;;;;;;3.20;1.77;;;4.00;99.90;;;;;;4895755;29;20056;-68
2023/12/26 06:53:47;;;;;;;2.78;1.65;;;4.00;99.90;;;;;;4893812;29;20123;-67
2023/12/26 06:56:20;;;;;;;3.55;1.63;;;4.00;99.90;;;;;;4906229;29;20134;-68
2023/12/26 06:58:53;;;;;;;5.57;2.58;;;4.00;99.90;;;;;;4909597;29;20052;-68
2023/12/26 07:01:25;;;;;;;5.60;2.28;;;4.00;99.90;;;;;;4911573;29;20052;-68
2023/12/26 07:03:57;;;;;;;3.25;1.63;;;4.00;99.90;;;;;;4908965;29;20046;-68
2023/12/26 07:06:29;;;;;;;4.70;2.33;;;3.90;99.90;;;;;;4918531;29;20048;-68
2023/12/26 07:08:56;;;;;;;2.70;2.15;;;3.90;99.90;;;;;;4914484;29;20129;-68
2023/12/26 07:11:28;;;;;;;8.27;2.80;;;3.90;99.90;;;;;;4913826;29;20046;-68
2023/12/26 07:13:55;;;;;;;8.65;2.00;;;4.00;99.90;;;;;;4913611;29;20074;-68
2023/12/26 07:16:27;;;;;;;5.00;2.10;;;4.10;99.90;;;;;;4911755;29;20083;-67
2023/12/26 07:18:59;;;;;;;6.10;1.83;;;4.10;99.90;;;;;;4892221;29;20072;-67
2023/12/26 07:21:31;;;;;;;6.72;2.03;;;4.10;99.90;;;;;;4910309;29;20128;-68
2023/12/26 07:24:03;;;;;;;4.53;1.77;;;4.10;99.90;;;;;;4910925;29;20397;-68
2023/12/26 07:26:35;;;;;;;3.97;2.10;;;4.20;99.90;;;;;;4912287;29;20129;-68
2023/12/26 07:29:07;;;;;;;7.55;2.33;;;4.20;99.90;;;;;;4911919;29;20043;-68
2023/12/26 07:31:34;;;;;;;5.63;1.88;;;4.30;99.90;;;;;;4914080;29;20044;-69
2023/12/26 07:34:09;;;;;;;3.40;1.83;;;4.30;99.90;;;;;;4912769;29;20052;-68
2023/12/26 07:36:41;;;;;;;4.13;2.42;;;4.30;99.90;;;;;;4913490;29;20055;-68
2023/12/26 07:39:08;;;;;;;2.60;1.77;;;4.30;99.90;;;;;;4910978;29;20036;-67
2023/12/26 07:41:40;;;;;;;2.80;1.80;;;4.40;99.90;;;;;;4917805;29;20059;-68
2023/12/26 07:44:13;;;;;;;6.35;2.30;;;4.40;99.90;;;;;;4901822;29;20131;-68
2023/12/26 07:46:45;;;;;;;10.07;2.17;;;4.50;99.90;;;;;;4917858;29;20453;-68
2023/12/26 07:49:17;;;;;;;3.35;1.80;;;4.50;99.90;;;;;;4912106;29;20040;-68
2023/12/26 07:51:49;;;;;;;5.35;2.63;;;4.40;99.90;;;;;;4919939;29;20044;-68
2023/12/26 07:54:21;;;;;;;4.47;2.25;;;4.50;99.90;;;;;;4929868;29;20132;-67
2023/12/26 07:56:48;;;;;;;7.88;2.08;;;4.50;99.90;;;;;;4917724;29;20122;-68
2023/12/26 07:59:19;;;;;;;6.95;3.65;;;4.60;99.90;;;;;;4915938;29;20044;-67
2023/12/26 08:01:52;;;;;;;3.63;1.83;;;4.60;99.90;;;;;;4903193;29;20051;-67
2023/12/26 08:04:24;;;;;;;3.60;1.95;;;4.70;99.90;;;;;;4917734;29;20044;-68
2023/12/26 08:06:55;;;;;;;6.65;2.42;;;4.70;99.90;;;;;;4916054;29;20048;-68
2023/12/26 08:09:27;;;;;;;4.07;2.10;;;4.80;99.90;;;;;;4927587;29;20041;-68
2023/12/26 08:11:59;;;;;;;4.65;2.25;;;4.90;99.90;;;;;;4914854;29;20135;-67
2023/12/26 08:14:31;;;;;;;5.63;2.10;;;5.00;99.90;;;;;;4916577;29;20116;-68
2023/12/26 08:17:03;;;;;;;3.35;2.17;;;5.00;99.90;;;;;;4910786;29;20139;-68
2023/12/26 08:19:31;;;;;;;3.60;2.20;;;5.10;99.90;;;;;;4917155;29;20048;-68
2023/12/26 08:22:03;;;;;;;3.67;2.35;;;5.10;99.90;;;;;;4914814;29;20040;-72
2023/12/26 08:24:35;;;;;;;4.43;1.98;;;5.30;99.90;;;;;;4928105;29;20047;-67
2023/12/26 08:27:07;;;;;;;7.57;2.05;;;5.30;99.90;;;;;;4916308;29;20601;-67
2023/12/26 08:29:39;;;;;;;4.10;1.98;;;5.40;99.90;;;;;;4913976;29;20127;-67
2023/12/26 08:32:11;;;;;;;3.83;1.73;;;5.50;99.90;;;;;;4912843;29;20535;-67
2023/12/26 08:34:44;;;;;;;4.78;2.28;;;5.50;99.90;;;;;;4905240;29;20044;-70
2023/12/26 08:37:12;;;;;;;2.65;2.10;;;5.50;99.90;;;;;;4913979;29;20131;-68
2023/12/26 08:39:43;;;;;;;6.65;2.15;;;5.60;99.90;;;;;;4905597;29;20128;-68
2023/12/26 08:42:16;;;;;;;3.78;2.00;;;5.60;99.90;;;;;;4907929;29;20044;-68
2023/12/26 08:44:48;;;;;;;2.83;1.70;;;5.60;99.90;;;;;;4913633;29;20096;-68
2023/12/26 08:47:20;;;;;;;4.90;1.90;;;5.70;99.90;;;;;;4910653;29;20072;-68
2023/12/26 08:49:52;;;;;;;5.25;2.15;;;5.70;99.90;;;;;;4890724;29;20044;-68
2023/12/26 08:52:25;;;;;;;4.70;2.00;;;5.70;99.90;;;;;;4910670;29;20033;-68
2023/12/26 08:54:57;;;;;;;3.60;1.73;;;5.80;99.90;;;;;;4915283;29;20050;-68
2023/12/26 08:57:29;;;;;;;3.45;1.50;;;5.90;99.90;;;;;;4911324;29;20036;-68
2023/12/26 09:00:01;;;;;;;5.53;2.05;;;5.90;99.90;;;;;;4915051;29;20127;-68
2023/12/26 09:02:33;;;;;;;4.53;2.05;;;6.00;99.90;;;;;;4912836;29;20119;-67
2023/12/26 09:05:05;;;;;;;4.93;2.10;;;6.00;99.90;;;;;;4893139;29;20032;-68
2023/12/26 09:07:38;;;;;;;3.08;1.85;;;6.10;99.90;;;;;;4914638;29;20131;-68
2023/12/26 09:10:10;;;;;;;3.50;2.00;;;6.20;99.90;;;;;;4909403;29;20497;-68
2023/12/26 09:12:37;;;;;;;5.03;2.10;;;6.20;99.90;;;;;;4894763;29;20080;-68
2023/12/26 09:15:09;;;;;;;5.28;4.57;;;6.30;99.90;;;;;;4914205;29;20040;-68
2023/12/26 09:17:42;;;;;;;4.10;2.67;;;6.30;99.90;;;;;;4910706;29;20051;-68
2023/12/26 09:20:14;;;;;;;7.63;5.43;;;6.40;99.90;;;;;;4909328;29;20041;-68
2023/12/26 09:22:46;;;;;;;5.45;3.95;;;6.40;99.90;;;;;;4911144;29;20127;-68
2023/12/26 09:25:18;;;;;;;7.35;4.65;;;6.50;99.90;;;;;;4910102;29;20037;-67
2023/12/26 09:27:50;;;;;;;5.15;4.25;;;6.50;99.90;;;;;;4912237;29;20478;-67
2023/12/26 09:30:18;;;;;;;7.50;3.40;;;6.50;99.90;;;;;;4906127;29;20608;-68
2023/12/26 09:32:50;;;;;;;6.87;2.90;;;6.50;99.90;;;;;;4913896;29;20104;-68
2023/12/26 09:35:21;;;;;;;7.07;5.45;;;6.60;99.90;;;;;;4905214;29;20413;-68
2023/12/26 09:37:53;;;;;;;8.23;2.92;;;6.60;99.90;;;;;;4909894;29;20055;-68
2023/12/26 09:40:26;;;;;;;4.72;1.80;;;6.60;99.90;;;;;;4909790;29;20064;-68
2023/12/26 09:43:01;;;;;;;2.07;1.43;;;6.60;99.90;;;;;;4911683;29;20052;-68
2023/12/26 09:45:34;;;;;;;6.72;1.73;;;6.70;99.90;;;;;;4910215;29;20579;-68
2023/12/26 09:48:07;;;;;;;3.85;1.88;;;6.70;99.90;;;;;;4910942;29;20052;-68
2023/12/26 09:50:39;;;;;;;4.53;1.73;;;6.70;99.90;;;;;;4909589;29;20040;-68
2023/12/26 09:53:12;;;;;;;4.85;2.13;;;6.80;99.90;;;;;;4906523;29;20056;-69
2023/12/26 09:55:44;;;;;;;5.65;2.00;;;6.80;99.90;;;;;;4907759;29;20036;-68
2023/12/26 09:58:12;;;;;;;4.13;1.98;;;6.90;99.90;;;;;;4912417;29;20136;-67
2023/12/26 10:00:46;;;;;;;3.90;1.92;;;6.90;99.90;;;;;;4929187;29;20054;-68
2023/12/26 10:03:18;;;;;;;4.20;2.05;;;6.90;99.90;;;;;;4911888;29;20521;-69
2023/12/26 10:05:57;;;;;;;2.67;1.67;;;6.90;99.90;;;;;;4914077;29;20091;-68
2023/12/26 10:08:28;;;;;;;2.92;1.70;;;7.00;99.90;;;;;;4906377;29;20533;-68
2023/12/26 10:11:01;;;;;;;4.60;1.80;;;7.00;99.90;;;;;;4906740;29;20042;-68
2023/12/26 10:13:49;;;;;;;4.60;1.80;;;7.10;99.90;;;;;;4913463;29;20047;-68
2023/12/26 10:16:22;;;;;;;4.95;1.60;;;7.10;99.90;;;;;;4909942;29;20461;-67
2023/12/26 10:18:50;;;;;;;5.97;2.17;;;7.10;99.90;;;;;;4911784;29;20119;-67
2023/12/26 10:21:23;;;;;;;2.95;1.90;;;7.10;99.90;;;;;;4904300;29;20512;-67
2023/12/26 10:23:56;;;;;;;3.25;1.50;;;7.20;99.90;;;;;;4918259;29;20040;-67
2023/12/26 10:26:28;;;;;;;4.28;2.00;;;7.20;99.90;;;;;;4921860;29;20059;-68
2023/12/26 10:28:59;;;;;;;4.82;1.90;;;7.30;99.90;;;;;;4909418;29;20043;-67
2023/12/26 10:31:32;;;;;;;7.28;2.33;;;7.30;99.90;;;;;;4906274;29;20131;-67
2023/12/26 10:34:15;;;;;;;5.05;1.77;;;7.30;99.90;;;;;;4909784;29;20123;-68
2023/12/26 10:36:48;;;;;;;3.50;1.92;;;7.40;99.90;;;;;;4905921;29;20099;-68
2023/12/26 10:39:20;;;;;;;2.70;1.92;;;7.40;99.90;;;;;;4909989;29;20058;-67
2023/12/26 10:41:53;;;;;;;3.53;1.52;;;7.40;99.90;;;;;;4908581;29;20502;-67
2023/12/26 10:44:51;;;;;;;7.73;2.33;;;7.50;99.90;;;;;;4908841;29;20068;-67
2023/12/26 10:47:24;;;;;;;2.63;1.67;;;7.50;99.90;;;;;;4905514;29;20300;-67
2023/12/26 10:50:01;;;;;;;3.00;1.83;;;7.50;99.90;;;;;;4894360;29;20059;-68
2023/12/26 10:52:29;;;;;;;4.40;2.05;;;7.50;99.90;;;;;;4906043;29;20457;-66
2023/12/26 10:55:04;;;;;;;4.32;1.70;;;7.50;99.90;;;;;;4907800;29;20039;-68
2023/12/26 10:57:33;;;;;;;6.05;1.60;;;7.50;99.90;;;;;;4906923;29;20449;-68
2023/12/26 11:00:49;;;;;;;6.95;2.00;;;7.60;99.90;;;;;;4909209;29;20045;-68
2023/12/26 13:53:56;;;;;;;6.72;2.00;;;8.90;99.90;;;;;;4916207;29;20532;-67
2023/12/26 13:57:06;;;;;;;6.47;1.50;;;8.80;99.90;;;;;;4929623;29;20067;-67
2023/12/26 14:00:12;;;;;;;4.10;1.90;;;8.70;99.90;;;;;;4905619;29;20123;-67
2023/12/26 14:03:22;;;;;;;4.75;1.33;;;8.70;99.90;;;;;;4919676;29;20390;-68
2023/12/26 14:06:33;;;;;;;5.85;2.00;;;8.70;99.90;;;;;;4915741;29;20115;-67
2023/12/26 14:09:42;;;;;;;5.57;1.73;;;8.70;99.90;;;;;;4915662;29;20527;-67
2023/12/26 14:12:52;;;;;;;4.10;1.60;;;8.70;99.90;;;;;;4899475;29;20052;-67
2023/12/26 14:16:01;;;;;;;5.32;1.70;;;8.70;99.90;;;;;;4894385;29;20063;-68
2023/12/26 14:19:11;;;;;;;4.57;1.33;;;8.60;99.90;;;;;;4911996;29;20040;-67
2023/12/26 14:22:23;;;;;;;5.47;1.65;;;8.60;99.90;;;;;;4925735;29;20048;-67
2023/12/26 14:25:33;;;;;;;5.65;1.65;;;8.50;99.90;;;;;;4915385;29;20048;-67
2023/12/26 14:28:42;;;;;;;3.83;1.70;;;8.50;99.90;;;;;;4912314;29;20543;-68
2023/12/26 14:31:52;;;;;;;5.70;1.85;;;8.40;99.90;;;;;;4922071;29;20482;-67
2023/12/26 14:34:56;;;;;;;2.75;1.77;;;8.40;99.90;;;;;;4925979;29;20119;-68
2023/12/26 14:38:06;;;;;;;3.38;1.63;;;8.30;99.90;;;;;;4913997;29;20054;-67
2023/12/26 14:40:51;;;;;;;;;;;8.30;99.90;;;;;;4914444;29;20095;-68
2023/12/26 14:43:56;;;;;;;8.55;2.75;;;8.30;99.90;;;;;;4910780;29;19926;-68
2023/12/26 14:47:05;;;;;;;4.50;1.60;;;8.30;99.90;;;;;;4912532;29;20054;-68
2023/12/26 14:50:15;;;;;;;3.53;2.28;;;8.20;99.90;;;;;;4912600;29;20054;-68
2023/12/26 14:53:25;;;;;;;5.15;2.35;;;8.20;99.90;;;;;;4922597;29;20631;-68
2023/12/26 14:56:34;;;;;;;5.40;1.65;;;8.10;99.90;;;;;;4921261;29;20050;-68
2023/12/26 14:59:44;;;;;;;8.25;1.95;;;8.10;99.90;;;;;;4914747;29;20042;-67
2023/12/26 15:02:10;;;;;;;2.95;1.50;;;8.10;99.90;;;;;;4913697;29;20076;-68
2023/12/26 15:04:42;;;;;;;5.25;1.30;;;8.10;99.90;;;;;;4914827;29;20505;-68
2023/12/26 15:07:14;;;;;;;3.28;1.50;;;8.10;99.90;;;;;;4914838;29;20126;-67
2023/12/26 15:09:46;;;;;;;1.70;1.30;;;8.10;99.90;;;;;;4912732;29;20147;-68
2023/12/26 15:12:14;;;;;;;7.13;1.67;;;8.10;99.90;;;;;;4914608;29;20116;-67
2023/12/26 15:14:46;;;;;;;3.13;1.30;;;8.10;99.90;;;;;;4925105;29;20075;-67
2023/12/26 15:17:18;;;;;;;5.57;1.75;;;8.20;99.90;;;;;;4914556;29;20043;-68
2023/12/26 15:19:50;;;;;;;4.47;1.67;;;8.20;99.90;;;;;;4914524;29;20048;-67
2023/12/26 15:22:17;;;;;;;3.30;1.67;;;8.20;99.90;;;;;;4914460;29;20076;-67
2023/12/26 15:24:48;;;;;;;3.58;2.05;;;8.10;99.90;;;;;;4905472;29;20304;-68
2023/12/26 15:27:15;;;;;;;3.90;1.70;;;8.10;99.90;;;;;;4907873;29;20469;-68
2023/12/26 15:29:48;;;;;;;4.82;1.60;;;8.10;99.90;;;;;;4912875;29;20070;-68
2023/12/26 15:32:15;;;;;;;3.83;1.80;;;8.10;99.90;;;;;;4916187;29;20080;-67
2023/12/26 15:34:47;;;;;;;4.10;1.60;;;8.10;99.90;;;;;;4914503;29;20416;-68
2023/12/26 15:37:19;;;;;;;3.53;2.00;;;8.10;99.90;;;;;;4914788;29;20103;-67
2023/12/26 15:39:51;;;;;;;3.33;1.65;;;8.10;99.90;;;;;;4901482;29;20493;-68
2023/12/26 15:42:18;;;;;;;5.43;1.83;;;8.00;99.90;;;;;;4917513;29;20040;-67
2023/12/26 15:44:50;;;;;;;2.28;1.45;;;8.10;99.90;;;;;;4911333;29;20119;-68
2023/12/26 15:47:17;;;;;;;4.65;1.52;;;8.10;99.90;;;;;;4913275;29;20040;-67
2023/12/26 15:49:49;;;;;;;6.00;2.97;;;8.10;99.90;;;;;;4905684;29;20088;-67
2023/12/26 15:52:21;;;;;;;4.57;1.60;;;8.00;99.90;;;;;;4918303;29;20131;-67
2023/12/26 15:54:53;;;;;;;2.55;1.60;;;8.00;99.90;;;;;;4917086;29;20138;-67
2023/12/26 15:57:25;;;;;;;6.20;2.22;;;8.00;99.90;;;;;;4917864;29;20139;-68
2023/12/26 15:59:57;;;;;;;3.33;2.10;;;8.00;99.90;;;;;;4917232;29;20037;-67
2023/12/26 16:02:38;;;;;;;6.68;2.00;;;8.00;99.90;;;;;;4905172;29;20525;-67
2023/12/26 16:05:10;;;;;;;3.78;1.67;;;8.00;99.90;;;;;;4916101;29;20454;-68
2023/12/26 16:07:42;;;;;;;7.10;2.50;;;8.00;99.90;;;;;;4905688;29;20139;-67
2023/12/26 16:10:14;;;;;;;6.38;1.73;;;8.00;99.90;;;;;;4917933;29;20076;-68
2023/12/26 16:12:45;;;;;;;3.47;1.90;;;8.00;99.90;;;;;;4917739;29;20054;-68
2023/12/26 16:15:20;;;;;;;4.03;2.13;;;8.00;99.90;;;;;;4929389;29;20151;-68
2023/12/26 16:17:52;;;;;;;7.60;2.35;;;7.90;99.90;;;;;;4917779;29;20127;-67
2023/12/26 16:20:24;;;;;;;3.65;1.80;;;7.90;99.90;;;;;;4913468;29;20576;-68
2023/12/26 16:22:56;;;;;;;5.15;2.28;;;7.90;99.90;;;;;;4914834;29;20131;-68
2023/12/26 16:25:28;;;;;;;8.48;2.70;;;7.90;99.90;;;;;;4914909;29;20123;-68